< < Back
Terminal Aerodrome Forecast


Current Version              Previous Versions:   1  2  3  4  5  6  7  8  9  

Terminal Aerodrome Forecast

883
FTUS42 KILM 280200 AAA
TAFFLO
TAF AMD
KFLO 280200Z 2802/2824 VRB03KT P6SM SCT060
      TEMPO 2809/2812 4SM BR SCT008
     FM281200 06006KT P6SM SCT035
     FM281800 09006KT P6SM SCT035 BKN120=

Latest METAR

418
SAUS70 KWBC 282200 RRB
MTRFLO
METAR KFLO 282153Z 07009KT 10SM FEW100 32/18 A3007 RMK AO2 SLP179
T03220183


USA.gov is the U.S. government's official web portal to all federal, state and local government web resources and services.